Time;durP1;ratioP1;P1;durP2;ratioP2;P2;SDS_P1;SDS_P2;PMS_P1;PMS_P2;Temp;Humidity;BMP_temperature;BMP_pressure;BME280_temperature;BME280_humidity;BME280_pressure;Samples;Min_cycle;Max_cycle;Signal;HPM_P1;HPM_P2
2023/11/14 00:01:56;;;;;;;0.20;0.00;;;;;;;5.15;67.80;98113.97;5047470;28;20047;-63
2023/11/14 00:04:22;;;;;;;0.10;0.10;;;;;;;5.02;67.64;98097.44;5052283;28;20112;-64
2023/11/14 00:06:48;;;;;;;0.28;0.10;;;;;;;5.02;68.04;98106.22;5035715;28;20172;-63
2023/11/14 00:09:13;;;;;;;0.08;0.00;;;;;;;4.99;68.13;98118.91;5032698;28;20041;-63
2023/11/14 00:11:41;;;;;;;0.10;0.10;;;;;;;4.98;68.17;98111.94;5033909;28;20034;-63
2023/11/14 00:14:06;;;;;;;0.80;0.10;;;;;;;4.94;68.37;98103.38;5032463;28;20059;-61
2023/11/14 00:16:32;;;;;;;0.32;0.10;;;;;;;5.00;68.44;98123.25;5032282;28;20073;-63
2023/11/14 00:18:58;;;;;;;0.80;0.10;;;;;;;5.05;68.82;98120.19;5032525;28;20084;-64
2023/11/14 00:21:24;;;;;;;0.43;0.20;;;;;;;5.00;68.01;98105.50;5030340;28;20033;-63
2023/11/14 00:23:50;;;;;;;0.47;0.10;;;;;;;5.02;68.28;98103.56;5031169;28;20095;-63
2023/11/14 00:26:15;;;;;;;0.20;0.10;;;;;;;4.95;68.40;98093.63;5031517;28;20219;-60
2023/11/14 00:28:41;;;;;;;0.35;0.15;;;;;;;5.08;68.56;98109.34;5014487;28;20136;-63
2023/11/14 00:31:07;;;;;;;1.95;0.10;;;;;;;5.07;68.46;98103.19;5044216;28;20042;-64
2023/11/14 00:33:34;;;;;;;0.10;0.10;;;;;;;5.11;68.29;98115.19;5052044;28;20051;-62
2023/11/14 00:36:00;;;;;;;0.63;0.25;;;;;;;5.07;68.23;98116.44;5050773;28;20036;-63
2023/11/14 00:38:26;;;;;;;0.20;0.10;;;;;;;4.78;68.41;98065.88;5051878;28;20367;-63
2023/11/14 00:40:52;;;;;;;0.20;0.10;;;;;;;5.02;68.18;98111.53;5049757;28;20044;-63
2023/11/14 00:43:18;;;;;;;1.02;0.20;;;;;;;5.01;68.39;98109.84;5050882;28;20049;-62
2023/11/14 00:45:45;;;;;;;0.30;0.30;;;;;;;4.95;68.45;98105.06;5051002;28;20060;-63
2023/11/14 00:48:10;;;;;;;0.30;0.20;;;;;;;5.02;68.54;98110.69;5051069;28;20172;-62
2023/11/14 00:50:36;;;;;;;0.52;0.30;;;;;;;4.96;69.01;98096.13;5050263;28;20028;-63
2023/11/14 00:53:02;;;;;;;1.45;0.30;;;;;;;4.97;68.95;98102.28;5050208;28;20034;-63
2023/11/14 00:55:27;;;;;;;0.50;0.28;;;;;;;4.95;68.33;98099.75;5051917;28;20501;-63
2023/11/14 00:57:53;;;;;;;1.55;0.30;;;;;;;5.09;69.14;98106.53;5051607;28;20044;-63
2023/11/14 01:00:19;;;;;;;0.50;0.30;;;;;;;4.90;69.09;98080.75;5046486;28;20097;-61
2023/11/14 01:02:45;;;;;;;0.55;0.30;;;;;;;5.11;68.38;98109.06;5032072;28;20037;-63
2023/11/14 01:05:11;;;;;;;0.10;0.10;;;;;;;4.87;68.29;98063.28;5031615;28;20045;-63
2023/11/14 01:07:37;;;;;;;0.20;0.20;;;;;;;5.11;68.12;98106.41;5032750;28;20038;-63
2023/11/14 01:10:04;;;;;;;0.60;0.20;;;;;;;5.07;68.14;98113.78;5034648;28;20079;-64
2023/11/14 01:12:32;;;;;;;0.20;0.20;;;;;;;5.02;68.48;98114.16;5034237;28;20022;-64
2023/11/14 01:14:58;;;;;;;0.20;0.20;;;;;;;5.01;68.61;98109.84;5035711;28;20158;-64
2023/11/14 01:17:24;;;;;;;2.05;0.30;;;;;;;5.06;68.68;98119.22;5035286;28;20034;-62
2023/11/14 01:19:50;;;;;;;0.40;0.30;;;;;;;5.05;68.57;98118.38;5036274;28;20033;-63
2023/11/14 01:22:17;;;;;;;0.38;0.20;;;;;;;5.07;68.64;98115.63;5035031;28;20052;-63
2023/11/14 01:24:44;;;;;;;0.30;0.30;;;;;;;5.08;68.56;98104.84;5035043;28;20049;-63
2023/11/14 01:27:10;;;;;;;0.70;0.30;;;;;;;5.10;68.62;98108.22;5035267;28;20111;-63
2023/11/14 01:29:36;;;;;;;0.25;0.10;;;;;;;5.09;68.15;98117.16;5036204;28;20037;-64
2023/11/14 01:32:03;;;;;;;0.35;0.20;;;;;;;5.07;68.43;98113.78;5035249;28;20369;-61
2023/11/14 01:34:28;;;;;;;0.40;0.20;;;;;;;4.99;68.74;98101.19;5035837;28;20109;-62
2023/11/14 01:36:58;;;;;;;0.28;0.28;;;;;;;5.09;68.47;98122.44;5035260;28;20439;-64
2023/11/14 01:39:25;;;;;;;0.25;0.25;;;;;;;5.14;67.98;98114.09;5035012;28;20061;-62
2023/11/14 01:41:53;;;;;;;0.30;0.30;;;;;;;5.07;68.38;98105.84;5051328;28;20056;-62
2023/11/14 01:44:19;;;;;;;0.65;0.30;;;;;;;5.14;68.55;98114.09;5055033;28;20033;-62
2023/11/14 01:46:45;;;;;;;0.30;0.30;;;;;;;5.11;68.99;98111.72;5055084;28;20502;-63
2023/11/14 01:49:11;;;;;;;0.20;0.20;;;;;;;5.15;68.73;98113.13;5048656;28;20026;-63
2023/11/14 01:51:36;;;;;;;3.17;0.40;;;;;;;5.16;69.06;98128.91;5034705;28;20040;-63
2023/11/14 01:54:04;;;;;;;0.40;0.30;;;;;;;5.21;68.96;98136.47;5033571;28;20544;-62
2023/11/14 01:56:30;;;;;;;0.35;0.30;;;;;;;5.17;69.11;98125.28;5034985;28;20040;-62
2023/11/14 01:58:56;;;;;;;0.95;0.30;;;;;;;5.21;68.71;98127.69;5034675;28;20029;-64
2023/11/14 02:01:24;;;;;;;0.40;0.20;;;;;;;5.01;68.66;98093.94;5037826;28;20024;-63
2023/11/14 02:03:50;;;;;;;0.50;0.30;;;;;;;5.23;68.79;98131.06;5043810;28;20030;-62
2023/11/14 02:06:16;;;;;;;0.20;0.20;;;;;;;5.21;68.88;98128.53;5034370;28;20092;-63
2023/11/14 02:08:42;;;;;;;0.82;0.38;;;;;;;5.20;69.05;98134.81;5034980;28;20602;-62
2023/11/14 02:11:07;;;;;;;0.32;0.30;;;;;;;5.18;69.44;98134.09;5040221;28;20119;-62
2023/11/14 02:13:34;;;;;;;0.50;0.30;;;;;;;5.16;69.07;98133.38;5053817;28;20435;-62
2023/11/14 02:16:00;;;;;;;0.77;0.47;;;;;;;5.15;69.39;98137.00;5053998;28;20033;-62
2023/11/14 02:18:26;;;;;;;1.52;0.30;;;;;;;5.11;69.02;98138.25;5052345;28;20047;-63
2023/11/14 02:20:52;;;;;;;0.60;0.38;;;;;;;4.96;69.37;98112.06;5033788;28;20041;-62
2023/11/14 02:23:20;;;;;;;0.57;0.40;;;;;;;5.02;69.48;98132.75;5034884;28;20025;-63
2023/11/14 02:25:46;;;;;;;1.10;0.47;;;;;;;4.91;70.21;98114.25;5034621;28;20114;-62
2023/11/14 02:28:13;;;;;;;0.50;0.50;;;;;;;4.99;70.17;98127.69;5034906;28;20038;-63
2023/11/14 02:30:39;;;;;;;1.20;1.10;;;;;;;5.01;70.05;98128.41;5050819;28;20139;-63
2023/11/14 02:33:05;;;;;;;1.23;1.10;;;;;;;5.02;70.14;98134.56;5053955;28;20104;-63
2023/11/14 02:35:31;;;;;;;1.80;1.70;;;;;;;5.00;69.94;98129.38;5053825;28;20025;-62
2023/11/14 02:37:57;;;;;;;3.47;2.55;;;;;;;5.01;69.96;98123.09;5051869;28;20464;-62
2023/11/14 02:40:23;;;;;;;2.40;2.17;;;;;;;5.02;70.11;98123.97;5034034;28;20025;-63
2023/11/14 02:42:54;;;;;;;2.00;1.90;;;;;;;5.01;69.92;98120.44;5033824;28;20029;-63
2023/11/14 02:45:21;;;;;;;2.30;2.05;;;;;;;5.00;70.23;98123.25;5033402;28;20356;-62
2023/11/14 02:47:48;;;;;;;3.35;2.70;;;;;;;5.01;70.35;98130.22;5034215;28;20116;-63
2023/11/14 02:50:50;;;;;;;2.40;2.20;;;;;;;5.13;70.37;98133.66;5051635;28;20535;-63
2023/11/14 02:53:19;;;;;;;1.98;1.38;;;;;;;5.09;70.23;98132.25;5051635;28;20052;-63
2023/11/14 02:55:45;;;;;;;0.90;0.80;;;;;;;5.11;70.32;98130.28;5053471;28;20033;-62
2023/11/14 02:58:12;;;;;;;1.02;0.88;;;;;;;5.10;70.41;98136.56;5051803;28;20107;-62
2023/11/14 03:00:38;;;;;;;0.65;0.60;;;;;;;5.09;70.24;98132.25;5053247;28;20112;-62
2023/11/14 03:03:04;;;;;;;0.40;0.40;;;;;;;4.84;70.20;98095.38;5053437;28;20501;-62
2023/11/14 03:05:29;;;;;;;0.50;0.50;;;;;;;4.79;70.05;98083.47;5053427;28;20112;-61
2023/11/14 03:07:55;;;;;;;0.40;0.35;;;;;;;5.07;70.68;98129.69;5051471;28;20025;-63
2023/11/14 03:10:21;;;;;;;2.38;0.50;;;;;;;5.07;70.68;98132.34;5050875;28;20048;-62
2023/11/14 03:12:46;;;;;;;0.52;0.40;;;;;;;5.14;70.41;98140.63;5050482;28;20364;-62
2023/11/14 03:15:12;;;;;;;0.60;0.50;;;;;;;5.08;70.26;98119.94;5052832;28;20029;-62
2023/11/14 03:17:38;;;;;;;0.85;0.50;;;;;;;5.09;70.06;98117.16;5053256;28;20419;-63
2023/11/14 03:20:06;;;;;;;0.82;0.52;;;;;;;5.16;70.07;98122.78;5037442;28;20036;-63
2023/11/14 03:22:31;;;;;;;0.80;0.63;;;;;;;5.14;70.16;98130.03;5032931;28;20025;-63
2023/11/14 03:24:57;;;;;;;0.80;0.80;;;;;;;5.12;70.01;98131.97;5032793;28;20135;-57
2023/11/14 03:27:23;;;;;;;1.13;0.73;;;;;;;5.17;70.33;98135.06;5033318;28;20111;-62
2023/11/14 03:29:48;;;;;;;1.65;1.02;;;;;;;5.17;70.23;98130.59;5049482;28;20034;-62
2023/11/14 03:32:14;;;;;;;0.68;0.65;;;;;;;5.19;70.12;98132.28;5052704;28;20064;-63
2023/11/14 03:34:39;;;;;;;1.42;0.90;;;;;;;5.20;69.58;98133.97;5052847;28;20070;-63
2023/11/14 03:37:05;;;;;;;0.90;0.80;;;;;;;5.23;69.69;98129.22;5052564;28;20071;-64
2023/11/14 03:39:33;;;;;;;0.80;0.70;;;;;;;5.23;69.98;98145.16;5048703;28;20087;-63
2023/11/14 03:41:58;;;;;;;1.65;0.60;;;;;;;5.22;70.21;98134.69;5039353;28;20029;-62
2023/11/14 03:44:24;;;;;;;0.82;0.60;;;;;;;5.25;69.86;98145.84;5032961;28;20116;-63
2023/11/14 03:46:50;;;;;;;0.68;0.60;;;;;;;5.30;69.68;98132.19;5032424;28;20352;-63
2023/11/14 03:49:16;;;;;;;0.80;0.50;;;;;;;5.29;69.62;98134.00;5046184;28;20094;-63
2023/11/14 03:51:42;;;;;;;1.00;0.70;;;;;;;5.28;69.75;98136.81;5052844;28;20033;-63
2023/11/14 03:54:07;;;;;;;1.35;0.77;;;;;;;5.31;69.97;98133.88;5052543;28;20382;-62
2023/11/14 03:56:33;;;;;;;1.38;0.70;;;;;;;5.32;69.90;98133.75;5052302;28;20037;-63
2023/11/14 03:58:59;;;;;;;3.65;0.60;;;;;;;5.33;69.45;98129.28;5050607;28;20033;-62
2023/11/14 04:01:24;;;;;;;1.42;0.50;;;;;;;5.30;69.47;98129.53;5053022;28;20355;-63
2023/11/14 04:03:50;;;;;;;1.30;0.60;;;;;;;5.30;69.56;98135.72;5050368;28;20059;-63
2023/11/14 04:06:16;;;;;;;0.65;0.60;;;;;;;5.27;69.65;98129.81;5051862;28;20496;-62
2023/11/14 04:08:41;;;;;;;0.80;0.60;;;;;;;5.30;69.72;98125.09;5050245;28;20063;-62
2023/11/14 04:11:07;;;;;;;0.60;0.40;;;;;;;5.27;69.65;98122.69;5051105;28;20045;-62
2023/11/14 04:13:33;;;;;;;0.55;0.52;;;;;;;5.27;69.44;98133.28;5052178;28;20448;-61
2023/11/14 04:16:00;;;;;;;0.90;0.50;;;;;;;5.31;69.87;98137.38;5046694;28;20026;-63
2023/11/14 04:18:26;;;;;;;2.00;0.60;;;;;;;5.32;69.62;98139.06;5033061;28;20037;-62
2023/11/14 04:20:52;;;;;;;1.33;0.50;;;;;;;5.30;69.63;98127.75;5032297;28;20086;-63
2023/11/14 04:23:17;;;;;;;0.47;0.40;;;;;;;5.35;69.46;98137.94;5032063;28;20405;-63
2023/11/14 04:25:43;;;;;;;2.35;0.50;;;;;;;5.30;69.80;98133.06;5032133;28;20069;-64
2023/11/14 04:28:09;;;;;;;1.50;0.57;;;;;;;5.33;69.95;98134.59;5032912;28;20029;-64
2023/11/14 04:30:35;;;;;;;0.65;0.40;;;;;;;5.30;69.78;98119.78;5032260;28;20433;-64
2023/11/14 04:33:00;;;;;;;0.68;0.47;;;;;;;5.41;69.72;98132.09;5032265;28;20056;-61
2023/11/14 04:35:26;;;;;;;0.50;0.40;;;;;;;5.40;69.60;98126.94;5032444;28;20026;-62
2023/11/14 04:37:55;;;;;;;1.58;0.60;;;;;;;5.43;69.24;98142.59;5032223;28;20026;-63
2023/11/14 04:40:21;;;;;;;1.65;0.60;;;;;;;5.40;69.16;98141.03;5049438;28;20040;-63
2023/11/14 04:42:47;;;;;;;0.77;0.65;;;;;;;5.37;69.22;98138.66;5051891;28;20033;-62
2023/11/14 04:45:12;;;;;;;0.50;0.40;;;;;;;5.38;69.13;98136.84;5054219;28;20035;-62
2023/11/14 04:47:38;;;;;;;1.75;0.60;;;;;;;5.36;69.08;98139.63;5052774;28;20101;-63
2023/11/14 04:50:04;;;;;;;0.30;0.20;;;;;;;5.38;68.47;98144.81;5055287;28;20037;-62
2023/11/14 04:52:30;;;;;;;3.72;0.47;;;;;;;5.32;69.07;98149.69;5055320;28;20055;-64
2023/11/14 04:54:56;;;;;;;1.40;0.40;;;;;;;5.31;68.73;98157.75;5036216;28;20457;-62
2023/11/14 04:57:21;;;;;;;1.40;0.35;;;;;;;5.28;68.92;98158.84;5035576;28;20130;-62
2023/11/14 04:59:47;;;;;;;0.25;0.20;;;;;;;5.26;68.92;98157.31;5051941;28;20128;-62
2023/11/14 05:02:14;;;;;;;0.82;0.40;;;;;;;5.05;68.93;98125.50;5055527;28;20029;-63
2023/11/14 05:04:39;;;;;;;1.30;0.40;;;;;;;5.25;69.30;98160.94;5070433;28;20071;-63
2023/11/14 05:07:05;;;;;;;0.73;0.40;;;;;;;5.16;69.07;98155.44;5055635;28;20053;-62
2023/11/14 05:09:33;;;;;;;0.43;0.40;;;;;;;5.25;69.48;98161.78;5038210;28;20369;-63
2023/11/14 05:11:59;;;;;;;2.40;0.50;;;;;;;5.20;69.22;98157.84;5035462;28;20030;-62
2023/11/14 05:14:24;;;;;;;2.35;0.43;;;;;;;5.30;69.30;98174.66;5034839;28;20060;-63
2023/11/14 05:16:50;;;;;;;0.68;0.32;;;;;;;5.31;69.10;98174.53;5034680;28;20032;-61
2023/11/14 05:19:15;;;;;;;1.75;0.40;;;;;;;5.32;68.87;98170.91;5035934;28;20103;-62
2023/11/14 05:21:41;;;;;;;0.60;0.40;;;;;;;5.36;69.30;98168.81;5035531;28;20040;-63
2023/11/14 05:24:07;;;;;;;1.02;0.40;;;;;;;5.26;68.95;98160.81;5034738;28;20056;-63
2023/11/14 05:26:33;;;;;;;2.83;0.60;;;;;;;5.40;68.67;98183.50;5034864;28;20033;-61
2023/11/14 05:28:59;;;;;;;1.42;0.60;;;;;;;5.45;68.87;98181.31;5035468;28;20068;-63
2023/11/14 05:31:25;;;;;;;0.52;0.30;;;;;;;5.50;68.59;98190.69;5034074;28;20095;-62
2023/11/14 05:33:51;;;;;;;2.47;0.40;;;;;;;5.48;68.13;98184.69;5034691;28;20103;-64
2023/11/14 05:36:16;;;;;;;1.23;0.30;;;;;;;5.44;68.12;98178.78;5034854;28;20103;-63
2023/11/14 05:38:42;;;;;;;1.90;0.35;;;;;;;5.27;67.59;98164.31;5041726;28;20492;-63
2023/11/14 05:41:08;;;;;;;0.73;0.40;;;;;;;5.45;67.70;98183.13;5054622;28;20116;-64
2023/11/14 05:43:33;;;;;;;0.82;0.60;;;;;;;5.45;67.78;98191.94;5053233;28;20324;-63
2023/11/14 05:46:00;;;;;;;1.35;0.55;;;;;;;5.24;67.98;98159.28;5054806;28;20032;-64
2023/11/14 05:48:28;;;;;;;3.05;0.50;;;;;;;5.39;68.14;98186.31;5046426;28;20065;-64
2023/11/14 05:50:54;;;;;;;1.83;0.50;;;;;;;5.46;67.74;98192.75;5034535;28;20026;-65
2023/11/14 05:53:19;;;;;;;1.33;0.57;;;;;;;5.43;68.00;98193.88;5034537;28;20083;-63
2023/11/14 05:55:45;;;;;;;1.95;0.60;;;;;;;5.52;67.96;98189.56;5034633;28;20033;-63
2023/11/14 05:58:11;;;;;;;2.03;0.50;;;;;;;5.55;67.58;98197.28;5044367;28;20475;-65
2023/11/14 06:00:37;;;;;;;1.02;0.55;;;;;;;5.34;67.51;98154.03;5052379;28;20037;-65
2023/11/14 06:03:03;;;;;;;3.05;1.13;;;;;;;5.49;67.61;98181.88;5053316;28;20047;-66
2023/11/14 06:05:29;;;;;;;1.98;0.43;;;;;;;5.57;67.10;98200.66;5054349;28;20136;-65
2023/11/14 06:07:54;;;;;;;0.70;0.40;;;;;;;5.55;66.95;98205.25;5052186;28;20526;-67
2023/11/14 06:10:20;;;;;;;1.75;0.47;;;;;;;5.57;67.39;98211.28;5054096;28;20037;-65
2023/11/14 06:12:46;;;;;;;1.50;0.50;;;;;;;5.50;67.83;98206.63;5051964;28;20033;-65
2023/11/14 06:15:13;;;;;;;1.33;0.70;;;;;;;5.52;68.02;98210.81;5053633;28;20029;-66
2023/11/14 06:17:39;;;;;;;1.17;0.80;;;;;;;5.53;68.50;98215.13;5052127;28;20139;-66
2023/11/14 06:20:07;;;;;;;1.45;0.60;;;;;;;5.58;68.74;98212.09;5036039;28;20040;-66
2023/11/14 06:22:33;;;;;;;3.10;0.82;;;;;;;5.60;68.22;98221.63;5034120;28;20025;-66
2023/11/14 06:25:00;;;;;;;1.83;0.70;;;;;;;5.70;67.38;98215.50;5033743;28;20388;-67
2023/11/14 06:27:26;;;;;;;1.83;0.50;;;;;;;5.80;67.18;98216.41;5033897;28;20427;-66
2023/11/14 06:29:51;;;;;;;2.17;0.40;;;;;;;5.87;66.68;98214.03;5034112;28;20038;-66
2023/11/14 06:32:17;;;;;;;0.68;0.50;;;;;;;5.86;65.89;98201.75;5033345;28;20033;-67
2023/11/14 06:34:42;;;;;;;1.50;0.57;;;;;;;5.97;66.06;98211.44;5032530;28;20395;-67
2023/11/14 06:37:08;;;;;;;0.80;0.60;;;;;;;5.96;65.60;98201.78;5033456;28;20406;-66
2023/11/14 06:39:34;;;;;;;1.08;0.68;;;;;;;6.07;65.47;98206.19;5035011;28;20445;-67
2023/11/14 06:42:00;;;;;;;2.90;0.70;;;;;;;6.15;65.58;98217.81;5033524;28;20048;-68
2023/11/14 06:44:25;;;;;;;0.73;0.40;;;;;;;6.18;64.78;98222.03;5032843;28;20084;-67
2023/11/14 06:46:51;;;;;;;3.92;0.70;;;;;;;6.18;65.05;98225.50;5033430;28;20547;-67
2023/11/14 06:49:16;;;;;;;1.30;0.90;;;;;;;6.15;65.28;98225.78;5034486;28;20037;-64
2023/11/14 06:51:42;;;;;;;2.30;0.40;;;;;;;6.12;65.21;98210.13;5033287;28;20035;-65
2023/11/14 06:54:08;;;;;;;0.75;0.50;;;;;;;5.87;65.29;98180.38;5033321;28;20109;-63
2023/11/14 06:56:34;;;;;;;1.02;0.60;;;;;;;6.10;65.59;98217.38;5033597;28;20040;-66
2023/11/14 06:59:00;;;;;;;0.50;0.40;;;;;;;6.11;65.49;98224.38;5033990;28;20415;-66
2023/11/14 07:01:26;;;;;;;3.17;0.70;;;;;;;6.13;65.55;98224.22;5034473;28;20112;-66
2023/11/14 07:03:51;;;;;;;1.35;0.70;;;;;;;5.90;65.49;98184.56;5034320;28;20392;-66
2023/11/14 07:06:19;;;;;;;4.25;1.02;;;;;;;6.12;65.82;98220.75;5033292;28;20057;-66
2023/11/14 07:08:45;;;;;;;4.00;1.38;;;;;;;6.11;66.09;98229.69;5033747;28;20037;-67
2023/11/14 07:11:11;;;;;;;1.60;0.80;;;;;;;6.13;65.54;98214.47;5033139;28;20034;-66
2023/11/14 07:13:38;;;;;;;7.05;1.05;;;;;;;5.90;66.10;98184.56;5033635;28;20030;-66
2023/11/14 07:16:04;;;;;;;1.30;1.00;;;;;;;6.17;66.30;98223.84;5033019;28;20098;-68
2023/11/14 07:18:30;;;;;;;2.28;0.80;;;;;;;6.22;66.20;98223.44;5038028;28;20031;-65
2023/11/14 07:20:55;;;;;;;3.42;1.52;;;;;;;6.30;65.76;98228.91;5052798;28;20033;-67
2023/11/14 07:23:21;;;;;;;1.90;1.00;;;;;;;6.33;65.60;98233.13;5050954;28;20452;-66
2023/11/14 07:25:47;;;;;;;6.00;1.13;;;;;;;6.28;65.70;98222.88;5052920;28;20040;-65
2023/11/14 07:28:13;;;;;;;3.05;1.02;;;;;;;6.26;65.50;98224.00;5050784;28;20142;-66
2023/11/14 07:30:39;;;;;;;1.88;0.98;;;;;;;6.28;64.91;98224.72;5052581;28;20112;-67
2023/11/14 07:33:05;;;;;;;1.27;0.60;;;;;;;6.21;65.56;98232.38;5053033;28;20064;-68
2023/11/14 07:35:30;;;;;;;1.52;0.68;;;;;;;6.25;65.20;98243.56;5051743;28;20495;-67
2023/11/14 07:37:58;;;;;;;1.88;0.77;;;;;;;6.05;64.99;98216.09;5050432;28;20037;-67
2023/11/14 07:40:24;;;;;;;2.53;0.70;;;;;;;6.11;65.59;98231.50;5033120;28;20029;-66
2023/11/14 07:42:50;;;;;;;2.60;0.80;;;;;;;6.12;65.36;98234.03;5032911;28;20109;-69
2023/11/14 07:45:16;;;;;;;1.52;0.70;;;;;;;6.09;66.03;98241.44;5032470;28;20030;-69
2023/11/14 07:47:41;;;;;;;2.72;0.60;;;;;;;6.06;66.48;98242.56;5033450;28;20044;-63
2023/11/14 07:50:07;;;;;;;2.00;0.50;;;;;;;6.04;66.27;98249.81;5032811;28;20456;-67
2023/11/14 07:52:33;;;;;;;1.10;0.70;;;;;;;6.02;66.04;98247.28;5033431;28;20091;-66
2023/11/14 07:55:02;;;;;;;1.17;0.50;;;;;;;5.98;66.46;98247.63;5032463;28;20410;-66
2023/11/14 07:57:30;;;;;;;3.63;0.60;;;;;;;5.97;66.78;98256.59;5032144;28;20040;-65
2023/11/14 07:59:56;;;;;;;1.25;0.77;;;;;;;5.96;66.78;98250.44;5033361;28;20348;-66
2023/11/14 08:02:22;;;;;;;1.63;0.95;;;;;;;5.98;66.75;98260.94;5032621;28;20104;-66
2023/11/14 08:04:52;;;;;;;2.63;1.02;;;;;;;6.01;66.61;98250.06;5032411;28;20029;-66
2023/11/14 08:07:19;;;;;;;2.67;1.02;;;;;;;5.99;67.17;98241.34;5032187;28;20040;-67
2023/11/14 08:09:45;;;;;;;2.25;0.70;;;;;;;6.12;66.60;98252.63;5029361;28;20094;-64
2023/11/14 08:12:11;;;;;;;2.60;0.85;;;;;;;6.04;66.94;98223.25;5050663;28;20028;-64
2023/11/14 08:14:39;;;;;;;4.57;1.00;;;;;;;6.36;66.22;98247.94;5044861;28;20043;-66
2023/11/14 08:17:04;;;;;;;2.28;1.42;;;;;;;6.51;66.28;98257.22;5046659;28;20158;-64
2023/11/14 08:19:30;;;;;;;1.98;1.38;;;;;;;6.60;65.52;98240.44;5050481;28;20059;-64
2023/11/14 08:22:03;;;;;;;3.03;1.08;;;;;;;6.72;65.30;98241.16;5056309;28;20205;-65
2023/11/14 08:24:29;;;;;;;3.13;1.50;;;;;;;6.78;65.04;98247.75;5048968;28;20194;-65
2023/11/14 08:26:54;;;;;;;2.20;1.17;;;;;;;6.79;65.25;98246.75;5055221;28;20040;-63
2023/11/14 08:29:21;;;;;;;2.83;1.10;;;;;;;6.73;64.85;98240.16;5055682;28;20513;-66
2023/11/14 08:31:46;;;;;;;2.05;1.02;;;;;;;6.81;65.01;98244.78;5054598;28;20033;-64
2023/11/14 08:34:12;;;;;;;2.05;0.88;;;;;;;6.80;65.04;98229.81;5045485;28;20045;-64
2023/11/14 08:36:41;;;;;;;2.20;1.33;;;;;;;6.89;65.11;98236.97;5035434;28;20034;-64
2023/11/14 08:39:10;;;;;;;3.05;1.15;;;;;;;6.89;65.45;98233.47;5036564;28;20055;-63
2023/11/14 08:41:36;;;;;;;4.22;1.42;;;;;;;6.94;65.07;98231.22;5037501;28;20483;-63
2023/11/14 08:44:02;;;;;;;2.65;1.33;;;;;;;6.97;64.72;98224.78;5036120;28;20124;-63
2023/11/14 08:46:28;;;;;;;3.60;1.48;;;;;;;6.99;64.95;98229.00;5055101;28;20025;-62
2023/11/14 08:48:54;;;;;;;1.70;1.20;;;;;;;7.06;65.07;98236.41;5054991;28;20048;-63
2023/11/14 08:51:21;;;;;;;1.65;1.20;;;;;;;7.07;64.69;98238.09;5055032;28;20033;-64
2023/11/14 08:53:47;;;;;;;5.13;1.42;;;;;;;6.98;64.87;98227.28;5052916;28;20167;-64
2023/11/14 08:56:13;;;;;;;3.42;1.50;;;;;;;6.99;65.14;98228.16;5053191;28;20452;-63
2023/11/14 08:58:39;;;;;;;3.60;1.40;;;;;;;6.99;65.35;98239.66;5053470;28;20079;-63
2023/11/14 09:01:05;;;;;;;2.25;1.30;;;;;;;6.87;65.25;98216.81;5053745;28;20040;-65
2023/11/14 09:03:31;;;;;;;2.67;1.33;;;;;;;6.94;65.03;98239.19;5055172;28;20462;-65
2023/11/14 09:05:56;;;;;;;2.00;1.35;;;;;;;6.88;65.24;98234.44;5040768;28;20372;-65
2023/11/14 09:08:22;;;;;;;1.95;1.15;;;;;;;6.83;65.28;98234.03;5046744;28;20037;-66
2023/11/14 09:10:48;;;;;;;1.77;1.02;;;;;;;6.82;65.23;98232.34;5038566;28;20102;-63
2023/11/14 09:13:15;;;;;;;0.95;0.85;;;;;;;6.75;64.99;98235.56;5035109;28;20025;-64
2023/11/14 09:15:41;;;;;;;2.35;1.17;;;;;;;6.65;65.67;98224.06;5034860;28;20026;-65
2023/11/14 09:18:07;;;;;;;1.50;0.80;;;;;;;6.62;65.68;98229.66;5052541;28;20043;-64
2023/11/14 09:20:34;;;;;;;3.47;1.17;;;;;;;6.54;66.09;98233.00;5054717;28;20111;-65
2023/11/14 09:23:00;;;;;;;1.85;1.10;;;;;;;6.57;66.42;98232.72;5049764;28;20028;-69
2023/11/14 09:25:27;;;;;;;2.78;1.33;;;;;;;6.62;66.43;98229.66;5053282;28;20051;-67
2023/11/14 09:27:53;;;;;;;1.90;1.00;;;;;;;6.57;66.33;98215.94;5054286;28;20367;-65
2023/11/14 09:30:19;;;;;;;2.38;0.90;;;;;;;6.36;65.96;98173.50;5053722;28;20044;-64
2023/11/14 09:32:46;;;;;;;2.00;0.88;;;;;;;6.68;66.42;98238.91;5044304;28;20064;-66
2023/11/14 09:35:12;;;;;;;3.42;1.25;;;;;;;6.71;66.12;98231.47;5040926;28;20029;-65
2023/11/14 09:37:38;;;;;;;2.05;1.10;;;;;;;6.73;66.20;98242.00;5037821;28;20048;-66
2023/11/14 09:40:08;;;;;;;4.25;1.23;;;;;;;6.73;66.39;98244.66;5036345;28;20056;-64
2023/11/14 09:42:37;;;;;;;2.53;1.23;;;;;;;6.77;66.21;98239.91;5046516;28;20033;-64
2023/11/14 09:45:07;;;;;;;1.55;1.25;;;;;;;6.74;66.16;98247.16;5034659;28;20030;-64
2023/11/14 09:47:33;;;;;;;2.13;1.10;;;;;;;6.71;66.49;98242.13;5034120;28;20034;-64
2023/11/14 09:49:59;;;;;;;2.50;1.45;;;;;;;6.67;66.35;98232.75;5033794;28;20043;-63
2023/11/14 09:52:25;;;;;;;1.90;0.93;;;;;;;6.66;65.92;98236.38;5032450;28;20037;-64
2023/11/14 09:54:51;;;;;;;2.10;1.08;;;;;;;6.72;66.33;98242.97;5033247;28;20030;-66
2023/11/14 09:57:18;;;;;;;3.42;1.15;;;;;;;6.64;65.91;98234.88;5043433;28;20112;-63
2023/11/14 09:59:45;;;;;;;3.50;1.27;;;;;;;6.67;66.34;98234.59;5039348;28;20040;-69
2023/11/14 10:02:14;;;;;;;2.10;1.40;;;;;;;6.78;66.38;98245.06;5042451;28;20041;-63
2023/11/14 10:04:43;;;;;;;1.52;1.20;;;;;;;6.78;66.11;98253.06;5052550;28;20039;-64
2023/11/14 10:07:09;;;;;;;6.40;1.40;;;;;;;6.75;65.99;98227.59;5054084;28;20037;-65
2023/11/14 10:09:39;;;;;;;3.30;1.30;;;;;;;6.60;66.29;98194.41;5053656;28;20033;-64
2023/11/14 10:12:05;;;;;;;1.58;1.13;;;;;;;6.84;65.92;98238.38;5039591;28;20030;-64
2023/11/14 10:14:45;;;;;;;1.60;1.05;;;;;;;6.94;66.08;98230.41;5053547;28;20107;-66
2023/11/14 10:17:13;;;;;;;1.63;1.25;;;;;;;6.86;65.64;98242.56;5048574;28;20045;-66
2023/11/14 10:20:00;;;;;;;1.25;0.93;;;;;;;6.95;65.76;98240.88;5053495;28;20068;-64
2023/11/14 10:22:27;;;;;;;3.28;2.15;;;;;;;6.81;66.07;98241.31;5048115;28;20065;-65
2023/11/14 10:24:53;;;;;;;2.65;1.50;;;;;;;6.78;66.09;98241.59;5052283;28;20049;-66
2023/11/14 10:27:36;;;;;;;3.40;1.30;;;;;;;6.87;66.33;98236.28;5053088;28;20037;-65
2023/11/14 10:30:03;;;;;;;2.90;1.10;;;;;;;6.78;66.13;98236.28;5048001;28;20471;-66
2023/11/14 10:32:32;;;;;;;3.08;1.45;;;;;;;6.77;66.34;98235.41;5051422;28;20045;-65
2023/11/14 10:35:15;;;;;;;1.90;1.42;;;;;;;6.90;66.34;98245.78;5052963;28;20366;-65
2023/11/14 10:37:41;;;;;;;2.80;1.52;;;;;;;6.79;66.15;98248.59;5052979;28;20049;-66
2023/11/14 10:40:07;;;;;;;2.75;1.40;;;;;;;6.70;66.72;98244.94;5052780;28;20409;-66
2023/11/14 10:42:33;;;;;;;3.58;1.65;;;;;;;6.71;66.27;98250.09;5033540;28;20033;-66
2023/11/14 10:45:01;;;;;;;2.85;1.60;;;;;;;6.71;66.51;98258.09;5041277;28;20092;-65
2023/11/14 10:47:40;;;;;;;4.50;1.27;;;;;;;6.77;66.91;98258.53;5033859;28;20103;-66
2023/11/14 10:50:25;;;;;;;4.13;1.58;;;;;;;6.68;66.48;98257.53;5032835;28;20251;-63
2023/11/14 10:52:52;;;;;;;2.97;1.35;;;;;;;6.61;67.15;98251.91;5032991;28;20409;-64
2023/11/14 10:55:21;;;;;;;3.42;1.45;;;;;;;6.58;67.27;98258.34;5033735;28;20025;-69
2023/11/14 10:57:51;;;;;;;2.83;1.42;;;;;;;6.60;67.28;98258.22;5050417;28;20067;-66
2023/11/14 11:00:18;;;;;;;3.85;1.58;;;;;;;6.60;67.03;98266.19;5056553;28;20135;-66
2023/11/14 11:02:45;;;;;;;2.60;1.60;;;;;;;6.55;67.15;98253.31;5055715;28;20099;-70
2023/11/14 11:05:14;;;;;;;1.45;1.13;;;;;;;6.37;66.61;98229.22;5056660;28;20048;-71
2023/11/14 11:07:40;;;;;;;4.38;2.08;;;;;;;6.57;66.35;98261.97;5053995;28;20067;-70
2023/11/14 11:10:07;;;;;;;2.25;1.40;;;;;;;6.50;66.74;98254.69;5052632;28;20025;-71
2023/11/14 11:12:35;;;;;;;1.88;1.23;;;;;;;6.58;65.80;98260.19;5052776;28;20086;-70
2023/11/14 11:15:05;;;;;;;2.28;1.20;;;;;;;6.49;66.30;98266.28;5053105;28;20025;-71
2023/11/14 11:17:42;;;;;;;3.55;1.27;;;;;;;6.49;67.18;98258.31;5044334;28;20041;-71
2023/11/14 11:20:10;;;;;;;2.60;0.82;;;;;;;6.35;66.83;98259.53;5031700;28;20057;-72
2023/11/14 11:23:04;;;;;;;1.58;1.10;;;;;;;6.46;66.95;98272.75;5029892;28;20087;-71
2023/11/14 11:25:34;;;;;;;3.47;1.13;;;;;;;6.33;67.21;98273.00;5030589;28;20065;-68
2023/11/14 11:28:32;;;;;;;1.20;0.95;;;;;;;6.36;67.14;98270.06;5043549;28;20464;-70
2023/11/14 11:31:14;;;;;;;2.63;1.02;;;;;;;6.34;67.13;98273.81;5029981;28;20091;-71
2023/11/14 11:33:43;;;;;;;1.10;0.80;;;;;;;6.03;66.37;98237.50;5032142;28;20081;-69
2023/11/14 11:36:25;;;;;;;1.60;1.08;;;;;;;6.29;66.44;98276.91;5032355;28;20099;-69
2023/11/14 11:39:02;;;;;;;1.85;1.00;;;;;;;6.15;66.80;98278.13;5033878;28;20108;-66
2023/11/14 11:41:34;;;;;;;2.50;1.00;;;;;;;6.13;66.78;98275.56;5038220;28;20480;-66